createdAt,value
2018-06-04T00:01:44.653Z,7.03
2018-06-04T00:04:17.871Z,7.00
2018-06-04T00:06:51.410Z,7.10
2018-06-04T00:09:24.173Z,7.03
2018-06-04T00:17:09.741Z,8.65
2018-06-04T00:22:20.811Z,9.10
2018-06-04T00:24:53.054Z,7.37
2018-06-04T00:32:37.990Z,8.60
2018-06-04T00:35:11.069Z,8.83
2018-06-04T00:37:44.094Z,7.87
2018-06-04T00:40:16.836Z,7.30
2018-06-04T00:42:50.289Z,7.77
2018-06-04T00:45:22.632Z,8.70
2018-06-04T00:47:56.454Z,11.07
2018-06-04T00:50:26.721Z,7.30
2018-06-04T00:55:36.759Z,7.68
2018-06-04T00:58:08.964Z,7.03
2018-06-04T01:00:41.773Z,7.37
2018-06-04T01:03:14.763Z,6.17
2018-06-04T01:05:47.208Z,7.20
2018-06-04T01:08:19.404Z,7.23
2018-06-04T01:10:52.019Z,6.93
2018-06-04T01:13:23.861Z,6.50
2018-06-04T01:18:32.054Z,7.05
2018-06-04T01:23:40.425Z,7.65
2018-06-04T01:31:24.605Z,8.10
2018-06-04T01:33:57.093Z,10.13
2018-06-04T01:36:27.568Z,7.97
2018-06-04T01:38:59.919Z,9.00
2018-06-04T01:41:31.280Z,8.23
2018-06-04T01:44:04.058Z,7.30
2018-06-04T01:46:35.403Z,8.67
2018-06-04T01:49:07.346Z,8.33
2018-06-04T01:51:39.494Z,9.23
2018-06-04T01:54:12.032Z,8.60
2018-06-04T01:56:43.821Z,9.07
2018-06-04T01:59:16.595Z,8.20
2018-06-04T02:04:24.938Z,8.65
2018-06-04T02:06:57.449Z,8.43
2018-06-04T02:09:27.929Z,8.77
2018-06-04T02:14:14.117Z,8.23
2018-06-04T02:16:46.579Z,8.53
2018-06-04T02:19:20.550Z,7.67
2018-06-04T02:21:53.881Z,8.17
2018-06-04T02:24:26.497Z,7.87
2018-06-04T02:26:59.357Z,7.60
2018-06-04T02:29:30.867Z,8.60
2018-06-04T02:32:02.975Z,8.68
2018-06-04T02:34:35.866Z,8.90
2018-06-04T02:37:08.296Z,9.07
2018-06-04T02:42:17.617Z,8.38
2018-06-04T02:44:48.952Z,8.37
2018-06-04T02:47:22.030Z,8.63
2018-06-04T02:49:53.390Z,8.00
2018-06-04T02:55:01.570Z,9.10
2018-06-04T02:57:32.753Z,9.65
2018-06-04T03:00:05.317Z,10.00
2018-06-04T03:02:37.900Z,8.63
2018-06-04T03:05:10.095Z,8.37
2018-06-04T03:07:41.856Z,9.43
2018-06-04T03:10:14.938Z,9.40
2018-06-04T03:12:46.904Z,8.23
2018-06-04T03:17:54.231Z,9.48
2018-06-04T03:20:27.256Z,8.03
2018-06-04T03:22:58.346Z,8.13
2018-06-04T03:28:06.774Z,9.27
2018-06-04T03:30:39.428Z,7.68
2018-06-04T03:33:12.362Z,8.50
2018-06-04T03:35:45.370Z,8.30
2018-06-04T03:38:17.555Z,7.80
2018-06-04T03:40:50.327Z,8.33
2018-06-04T03:43:22.768Z,7.73
2018-06-04T03:45:54.049Z,8.27
2018-06-04T03:48:26.685Z,7.73
2018-06-04T03:50:57.262Z,8.80
2018-06-04T03:53:30.155Z,7.67
2018-06-04T03:56:02.809Z,10.23
2018-06-04T04:01:13.712Z,10.07
2018-06-04T04:03:46.133Z,9.63
2018-06-04T04:06:17.697Z,9.63
2018-06-04T04:08:50.033Z,9.50
2018-06-04T04:11:23.761Z,9.80
2018-06-04T04:13:56.506Z,9.87
2018-06-04T04:16:30.025Z,9.50
2018-06-04T04:19:02.318Z,10.03
2018-06-04T04:21:34.429Z,10.70
2018-06-04T04:26:44.395Z,10.55
2018-06-04T04:31:54.848Z,10.80
2018-06-04T04:34:27.968Z,9.87
2018-06-04T04:37:03.199Z,10.60
2018-06-04T04:39:35.545Z,10.60
2018-06-04T04:42:09.092Z,11.97
2018-06-04T04:44:41.522Z,11.97
2018-06-04T04:47:14.346Z,13.20
2018-06-04T04:49:46.376Z,13.50
2018-06-04T04:52:19.536Z,12.90
2018-06-04T04:54:51.488Z,15.10
2018-06-04T04:57:24.013Z,15.10
2018-06-04T04:59:55.986Z,14.67
2018-06-04T05:05:06.659Z,15.73
2018-06-04T05:07:39.574Z,16.53
2018-06-04T05:10:12.084Z,16.10
2018-06-04T05:12:43.875Z,14.67
2018-06-04T05:15:16.205Z,15.70
2018-06-04T05:17:47.489Z,15.20
2018-06-04T05:22:55.869Z,16.55
2018-06-04T05:25:26.187Z,17.23
2018-06-04T05:27:57.557Z,15.55
2018-06-04T05:30:29.895Z,14.68
2018-06-04T05:33:02.588Z,15.47
2018-06-04T05:35:34.891Z,16.60
2018-06-04T05:38:08.265Z,18.93
2018-06-04T05:43:18.992Z,17.50
2018-06-04T05:45:51.470Z,17.17
2018-06-04T05:48:22.468Z,16.63
2018-06-04T05:53:32.917Z,15.40
2018-06-04T05:56:05.116Z,14.53
2018-06-04T05:58:38.257Z,14.43
2018-06-04T06:03:46.026Z,15.80
2018-06-04T06:11:31.557Z,15.90
2018-06-04T06:14:02.221Z,15.07
2018-06-04T06:16:34.715Z,15.83
2018-06-04T06:21:43.086Z,14.85
2018-06-04T06:24:15.394Z,15.80
2018-06-04T06:26:48.271Z,14.67
2018-06-04T06:29:19.276Z,14.47
2018-06-04T06:31:51.690Z,14.45
2018-06-04T06:34:23.948Z,15.43
2018-06-04T06:36:56.682Z,15.45
2018-06-04T06:39:28.193Z,16.33
2018-06-04T06:42:00.051Z,14.10
2018-06-04T06:44:32.726Z,13.80
2018-06-04T06:49:42.399Z,14.15
2018-06-04T06:52:13.643Z,13.50
2018-06-04T06:54:45.426Z,13.15
2018-06-04T06:57:17.246Z,14.25
2018-06-04T06:59:48.865Z,11.77
2018-06-04T07:02:20.875Z,14.07
2018-06-04T07:04:52.163Z,11.60
2018-06-04T07:07:26.631Z,13.73
2018-06-04T07:09:58.869Z,10.43
2018-06-04T07:12:30.217Z,12.87
2018-06-04T07:15:02.157Z,10.00
2018-06-04T07:17:34.356Z,11.27
2018-06-04T07:20:06.651Z,11.63
2018-06-04T07:25:15.479Z,9.30
2018-06-04T07:27:47.291Z,9.87
2018-06-04T07:30:19.826Z,8.43
2018-06-04T07:32:52.842Z,8.32
2018-06-04T07:35:23.523Z,8.30
2018-06-04T07:37:55.612Z,8.20
2018-06-04T07:40:29.129Z,7.90
2018-06-04T07:43:01.025Z,8.75
2018-06-04T07:45:33.604Z,6.63
2018-06-04T07:50:42.788Z,8.83
2018-06-04T07:53:17.736Z,8.63
2018-06-04T07:55:49.866Z,7.90
2018-06-04T08:00:59.006Z,9.27
2018-06-04T08:03:31.766Z,8.70
2018-06-04T08:06:04.846Z,6.93
2018-06-04T08:08:37.373Z,6.60
2018-06-04T08:13:46.159Z,7.63
2018-06-04T08:16:18.943Z,9.60
2018-06-04T08:18:51.529Z,7.43
2018-06-04T08:21:23.892Z,7.40
2018-06-04T08:23:56.371Z,8.37
2018-06-04T08:29:05.620Z,6.60
2018-06-04T08:31:38.478Z,7.00
2018-06-04T08:34:09.543Z,7.10
2018-06-04T08:39:18.346Z,7.70
2018-06-04T08:41:50.042Z,7.90
2018-06-04T08:44:22.891Z,8.90
2018-06-04T08:46:54.314Z,7.73
2018-06-04T08:49:26.944Z,7.43
2018-06-04T08:51:59.192Z,7.03
2018-06-04T08:54:31.654Z,7.07
2018-06-04T08:57:04.457Z,7.37
2018-06-04T08:59:36.616Z,7.97
2018-06-04T09:04:44.618Z,7.35
2018-06-04T09:07:17.105Z,7.23
2018-06-04T09:09:49.877Z,6.40
2018-06-04T09:12:23.223Z,8.00
2018-06-04T09:14:55.873Z,7.27
2018-06-04T09:20:05.677Z,6.82
2018-06-04T09:22:38.611Z,6.57
2018-06-04T09:25:11.349Z,7.17
2018-06-04T09:27:43.521Z,6.57
2018-06-04T09:30:15.808Z,7.10
2018-06-04T09:32:48.699Z,6.60
2018-06-04T09:35:21.769Z,7.23
2018-06-04T09:37:54.305Z,5.67
2018-06-04T09:40:27.499Z,5.40
2018-06-04T09:43:00.366Z,6.53
2018-06-04T09:45:33.482Z,5.67
2018-06-04T09:48:06.722Z,6.03
2018-06-04T09:50:39.547Z,6.70
2018-06-04T09:53:11.130Z,5.13
2018-06-04T09:55:43.833Z,4.97
2018-06-04T09:58:15.924Z,5.47
2018-06-04T10:00:48.726Z,5.43
2018-06-04T10:03:21.624Z,6.70
2018-06-04T10:08:29.015Z,5.90
2018-06-04T10:11:01.680Z,5.80
2018-06-04T10:13:33.478Z,5.60
2018-06-04T10:21:20.671Z,5.60
2018-06-04T10:23:53.221Z,5.40
2018-06-04T10:26:26.897Z,6.00
2018-06-04T10:28:59.701Z,6.17
2018-06-04T10:31:32.703Z,5.73
2018-06-04T10:34:03.841Z,5.80
2018-06-04T10:36:37.162Z,5.90
2018-06-04T10:39:09.526Z,5.60
2018-06-04T10:41:42.918Z,8.60
2018-06-04T10:44:15.468Z,4.90
2018-06-04T10:46:47.830Z,5.90
2018-06-04T10:49:19.979Z,4.90
2018-06-04T10:51:52.071Z,5.20
2018-06-04T10:54:24.985Z,4.80
2018-06-04T10:56:57.451Z,4.80
2018-06-04T10:59:29.911Z,4.90
2018-06-04T11:02:03.037Z,4.90
2018-06-04T11:04:36.973Z,4.70
2018-06-04T11:09:44.998Z,4.82
2018-06-04T11:12:18.320Z,4.30
2018-06-04T11:14:50.804Z,4.50
2018-06-04T11:17:24.299Z,3.70
2018-06-04T11:19:54.994Z,5.50
2018-06-04T11:22:27.617Z,4.00
2018-06-04T11:24:58.726Z,5.27
2018-06-04T11:27:30.980Z,3.63
2018-06-04T11:30:03.265Z,3.63
2018-06-04T11:32:37.012Z,3.73
2018-06-04T11:35:09.750Z,4.13
2018-06-04T11:37:42.019Z,4.20
2018-06-04T11:40:13.065Z,3.70
2018-06-04T11:42:44.579Z,3.50
2018-06-04T11:45:18.201Z,4.07
2018-06-04T11:47:50.584Z,4.13
2018-06-04T11:53:01.593Z,4.60
2018-06-04T11:58:10.021Z,3.72
2018-06-04T12:00:43.140Z,3.00
2018-06-04T12:03:16.022Z,3.17
2018-06-04T12:05:47.689Z,4.07
2018-06-04T12:08:20.579Z,3.72
2018-06-04T12:10:53.760Z,3.40
2018-06-04T12:13:26.332Z,3.20
2018-06-04T12:15:58.718Z,3.47
2018-06-04T12:18:31.753Z,4.53
2018-06-04T12:21:05.300Z,3.63
2018-06-04T12:23:37.330Z,3.93
2018-06-04T12:26:09.150Z,3.90
2018-06-04T12:31:17.680Z,5.80
2018-06-04T12:33:50.828Z,4.73
2018-06-04T12:36:22.317Z,5.23
2018-06-04T12:38:54.829Z,3.73
2018-06-04T12:41:27.768Z,4.28
2018-06-04T12:43:59.205Z,4.20
2018-06-04T12:46:31.703Z,4.20
2018-06-04T12:49:04.232Z,4.40
2018-06-04T12:51:37.024Z,4.30
2018-06-04T12:54:09.441Z,4.30
2018-06-04T12:56:41.177Z,5.40
2018-06-04T12:59:12.217Z,6.17
2018-06-04T13:01:44.349Z,16.63
2018-06-04T13:06:53.018Z,7.10
2018-06-04T13:09:25.865Z,7.30
2018-06-04T13:11:57.748Z,5.10
2018-06-04T13:14:31.215Z,7.80
2018-06-04T13:17:02.590Z,9.77
2018-06-04T13:24:48.939Z,7.00
2018-06-04T13:27:22.313Z,5.43
2018-06-04T13:29:54.588Z,5.50
2018-06-04T13:32:27.510Z,4.93
2018-06-04T13:34:59.536Z,6.10
2018-06-04T13:37:32.317Z,4.70
2018-06-04T13:40:05.348Z,5.37
2018-06-04T13:45:16.644Z,4.47
2018-06-04T13:47:49.268Z,4.40
2018-06-04T13:50:21.246Z,4.05
2018-06-04T13:52:54.389Z,4.93
2018-06-04T13:55:25.930Z,4.20
2018-06-04T13:57:57.935Z,3.83
2018-06-04T14:00:31.755Z,5.07
2018-06-04T14:03:05.580Z,3.53
2018-06-04T14:05:37.857Z,4.10
2018-06-04T14:08:10.527Z,5.00
2018-06-04T14:10:42.715Z,4.30
2018-06-04T14:13:14.166Z,4.20
2018-06-04T14:15:47.156Z,4.97
2018-06-04T14:18:19.501Z,4.53
2018-06-04T14:20:51.883Z,4.37
2018-06-04T14:23:24.734Z,4.25
2018-06-04T14:25:56.969Z,4.00
2018-06-04T14:31:06.404Z,4.20
2018-06-04T14:33:39.453Z,4.93
2018-06-04T14:36:12.088Z,5.03
2018-06-04T14:38:44.416Z,4.27
2018-06-04T14:41:17.354Z,5.50
2018-06-04T14:43:48.274Z,4.30
2018-06-04T14:46:20.970Z,6.33
2018-06-04T14:54:08.439Z,5.85
2018-06-04T14:59:16.498Z,4.47
2018-06-04T15:01:48.930Z,5.37
2018-06-04T15:04:22.066Z,4.93
2018-06-04T15:06:54.312Z,4.70
2018-06-04T15:12:06.065Z,4.80
2018-06-04T15:14:37.377Z,4.50
2018-06-04T15:17:10.412Z,4.80
2018-06-04T15:19:42.698Z,3.77
2018-06-04T15:22:14.711Z,4.87
2018-06-04T15:24:46.834Z,4.73
2018-06-04T15:27:19.671Z,4.70
2018-06-04T15:29:52.108Z,4.18
2018-06-04T15:32:25.816Z,4.80
2018-06-04T15:37:29.781Z,5.60
2018-06-04T15:40:02.592Z,4.33
2018-06-04T15:42:35.492Z,4.93
2018-06-04T15:50:23.625Z,4.40
2018-06-04T15:52:55.907Z,4.70
2018-06-04T15:55:29.252Z,4.53
2018-06-04T15:58:02.595Z,4.67
2018-06-04T16:00:35.507Z,4.97
2018-06-04T16:03:09.290Z,4.13
2018-06-04T16:05:40.201Z,6.00
2018-06-04T16:08:13.208Z,4.90
2018-06-04T16:10:45.315Z,4.30
2018-06-04T16:13:17.659Z,4.40
2018-06-04T16:15:50.223Z,4.37
2018-06-04T16:18:23.413Z,4.60
2018-06-04T16:20:55.960Z,6.27
2018-06-04T16:23:27.433Z,6.00
2018-06-04T16:26:00.269Z,4.60
2018-06-04T16:28:32.278Z,6.77
2018-06-04T16:31:05.390Z,4.50
2018-06-04T16:33:37.177Z,6.23
2018-06-04T16:36:10.308Z,4.90
2018-06-04T16:38:41.529Z,4.72
2018-06-04T16:41:14.417Z,4.97
2018-06-04T16:43:47.625Z,4.80
2018-06-04T16:46:20.019Z,4.10
2018-06-04T16:48:50.206Z,5.27
2018-06-04T16:51:23.365Z,3.83
2018-06-04T16:53:55.847Z,4.53
2018-06-04T16:56:28.845Z,4.20
2018-06-04T16:59:00.644Z,5.20
2018-06-04T17:01:33.580Z,4.30
2018-06-04T17:04:06.421Z,5.63
2018-06-04T17:06:40.015Z,4.35
2018-06-04T17:09:12.813Z,4.40
2018-06-04T17:11:43.966Z,4.77
2018-06-04T17:14:17.032Z,8.00
2018-06-04T17:16:48.066Z,4.70
2018-06-04T17:19:20.885Z,5.10
2018-06-04T17:21:54.499Z,5.53
2018-06-04T17:24:27.031Z,6.93
2018-06-04T17:26:59.977Z,6.00
2018-06-04T17:29:32.810Z,5.17
2018-06-04T17:32:05.675Z,4.50
2018-06-04T17:34:37.512Z,5.10
2018-06-04T17:39:48.344Z,4.80
2018-06-04T17:42:20.634Z,4.87
2018-06-04T17:44:53.694Z,6.40
2018-06-04T17:47:26.372Z,7.90
2018-06-04T17:49:59.324Z,4.90
2018-06-04T17:52:31.932Z,5.10
2018-06-04T17:55:04.365Z,4.40
2018-06-04T17:57:37.340Z,5.47
2018-06-04T18:00:09.802Z,5.03
2018-06-04T18:02:42.263Z,5.50
2018-06-04T18:07:51.761Z,4.80
2018-06-04T18:10:24.261Z,4.67
2018-06-04T18:12:56.903Z,4.17
2018-06-04T18:18:08.293Z,6.75
2018-06-04T18:20:40.463Z,5.00
2018-06-04T18:23:14.228Z,5.20
2018-06-04T18:25:45.708Z,6.60
2018-06-04T18:28:18.670Z,5.50
2018-06-04T18:30:51.222Z,5.93
2018-06-04T18:33:24.547Z,5.50
2018-06-04T18:35:57.931Z,5.23
2018-06-04T18:38:30.436Z,8.27
2018-06-04T18:41:03.539Z,6.10
2018-06-04T18:43:36.534Z,5.77
2018-06-04T18:48:45.096Z,7.40
2018-06-04T18:51:18.000Z,5.53
2018-06-04T18:53:50.161Z,7.17
2018-06-04T18:56:22.813Z,6.20
2018-06-04T18:58:55.044Z,11.40
2018-06-04T19:01:27.520Z,7.37
2018-06-04T19:04:00.038Z,6.55
2018-06-04T19:06:32.948Z,7.90
2018-06-04T19:09:06.171Z,6.70
2018-06-04T19:11:39.597Z,6.10
2018-06-04T19:14:12.521Z,7.30
2018-06-04T19:16:45.595Z,7.47
2018-06-04T19:19:18.300Z,7.03
2018-06-04T19:21:50.588Z,9.87
2018-06-04T19:24:23.440Z,9.23
2018-06-04T19:26:56.796Z,10.13
2018-06-04T19:29:28.309Z,10.60
2018-06-04T19:32:01.093Z,11.07
2018-06-04T19:34:35.167Z,13.63
2018-06-04T19:37:08.650Z,8.47
2018-06-04T19:42:17.364Z,9.40
2018-06-04T19:44:49.869Z,6.53
2018-06-04T19:49:58.416Z,6.63
2018-06-04T19:52:30.470Z,6.85
2018-06-04T19:55:02.045Z,7.68
2018-06-04T19:57:35.806Z,7.40
2018-06-04T20:00:09.123Z,8.43
2018-06-04T20:02:40.907Z,8.10
2018-06-04T20:05:13.773Z,8.77
2018-06-04T20:07:45.060Z,8.93
2018-06-04T20:10:17.525Z,8.00
2018-06-04T20:12:49.668Z,8.47
2018-06-04T20:15:21.694Z,7.60
2018-06-04T20:17:53.942Z,8.70
2018-06-04T20:20:26.365Z,8.53
2018-06-04T20:22:59.920Z,9.40
2018-06-04T20:25:31.963Z,7.20
2018-06-04T20:28:01.909Z,8.27
2018-06-04T20:30:34.217Z,7.60
2018-06-04T20:33:05.904Z,8.07
2018-06-04T20:38:14.559Z,8.38
2018-06-04T20:40:46.275Z,8.27
2018-06-04T20:43:17.722Z,8.10
2018-06-04T20:45:49.509Z,8.63
2018-06-04T20:48:21.968Z,9.37
2018-06-04T20:50:54.628Z,7.70
2018-06-04T20:53:27.374Z,7.90
2018-06-04T20:56:00.616Z,9.17
2018-06-04T21:01:07.545Z,10.57
2018-06-04T21:03:39.252Z,10.57
2018-06-04T21:06:11.829Z,8.40
2018-06-04T21:08:44.810Z,10.32
2018-06-04T21:11:17.376Z,9.93
2018-06-04T21:13:49.902Z,10.47
2018-06-04T21:16:22.152Z,9.43
2018-06-04T21:18:55.353Z,8.70
2018-06-04T21:21:28.390Z,10.77
2018-06-04T21:24:02.566Z,9.10
2018-06-04T21:26:35.315Z,8.93
2018-06-04T21:29:08.308Z,9.73
2018-06-04T21:31:39.642Z,9.17
2018-06-04T21:34:11.831Z,9.57
2018-06-04T21:36:44.232Z,8.43
2018-06-04T21:39:18.977Z,8.50
2018-06-04T21:41:53.578Z,10.03
2018-06-04T21:44:25.407Z,12.10
2018-06-04T21:49:34.159Z,9.60
2018-06-04T21:52:06.885Z,9.17
2018-06-04T21:54:38.196Z,8.40
2018-06-04T21:57:11.104Z,9.20
2018-06-04T21:59:44.165Z,8.70
2018-06-04T22:02:15.683Z,8.90
2018-06-04T22:04:47.952Z,9.20
2018-06-04T22:07:20.317Z,10.37
2018-06-04T22:09:53.136Z,9.85
2018-06-04T22:12:24.826Z,9.57
2018-06-04T22:14:56.079Z,9.30
2018-06-04T22:20:05.071Z,9.73
2018-06-04T22:22:36.604Z,9.27
2018-06-04T22:25:08.504Z,9.30
2018-06-04T22:27:41.161Z,7.93
2018-06-04T22:30:13.079Z,9.63
2018-06-04T22:32:46.565Z,9.60
2018-06-04T22:35:18.560Z,10.50
2018-06-04T22:37:48.161Z,9.20
2018-06-04T22:40:17.210Z,8.80
2018-06-04T22:42:47.301Z,9.70
2018-06-04T22:45:16.416Z,9.80
2018-06-04T22:47:45.462Z,9.53
2018-06-04T22:50:14.633Z,9.87
2018-06-04T22:52:43.676Z,8.97
2018-06-04T22:55:16.461Z,10.27
2018-06-04T22:57:47.728Z,10.40
2018-06-04T23:00:16.896Z,9.40
2018-06-04T23:02:45.958Z,9.95
2018-06-04T23:10:28.509Z,9.70
2018-06-04T23:15:33.316Z,10.43
2018-06-04T23:18:02.417Z,10.37
2018-06-04T23:20:31.468Z,10.13
2018-06-04T23:23:00.517Z,10.53
2018-06-04T23:25:31.381Z,12.33
2018-06-04T23:28:04.364Z,12.10
2018-06-04T23:30:33.430Z,10.77
2018-06-04T23:35:38.330Z,10.23
2018-06-04T23:40:43.109Z,10.20
2018-06-04T23:43:12.217Z,12.43
2018-06-04T23:45:41.257Z,9.83
2018-06-04T23:48:10.311Z,10.07
2018-06-04T23:50:39.355Z,9.70
2018-06-04T23:53:08.400Z,13.00
2018-06-04T23:55:37.453Z,10.63
2018-06-04T23:58:06.514Z,10.33
